createdAt,value
2017-08-10T00:06:34.475Z,13.4
2017-08-10T00:16:49.211Z,13.6
2017-08-10T00:27:04.034Z,13.6
2017-08-10T00:37:17.817Z,13.6
2017-08-10T00:47:31.809Z,13.5
2017-08-10T00:57:46.520Z,13.4
2017-08-10T01:08:01.357Z,13.6
2017-08-10T01:18:16.316Z,13.5
2017-08-10T01:28:31.282Z,13.6
2017-08-10T01:38:46.084Z,13.6
2017-08-10T01:49:01.505Z,13.6
2017-08-10T01:59:16.224Z,13.5
2017-08-10T02:09:31.222Z,13.6
2017-08-10T02:19:46.275Z,13.5
2017-08-10T02:30:00.877Z,13.3
2017-08-10T02:40:15.962Z,13.4
2017-08-10T02:50:29.846Z,13.3
2017-08-10T03:00:43.886Z,13.5
2017-08-10T03:10:58.328Z,13.5
2017-08-10T03:21:13.836Z,13.5
2017-08-10T03:31:29.327Z,13.5
2017-08-10T03:41:44.519Z,13.8
2017-08-10T03:52:00.145Z,13.8
2017-08-10T04:02:15.177Z,13.9
2017-08-10T04:12:29.337Z,13.9
2017-08-10T04:22:43.603Z,13.9
2017-08-10T04:32:58.462Z,14
2017-08-10T04:43:13.637Z,13.9
2017-08-10T04:53:28.924Z,13.9
2017-08-10T05:03:43.392Z,14.1
2017-08-10T05:13:57.722Z,14.3
2017-08-10T05:24:12.190Z,14.5
2017-08-10T05:34:25.989Z,14.8
2017-08-10T05:44:41.073Z,15
2017-08-10T05:54:56.060Z,15.1
2017-08-10T06:05:11.130Z,15.5
2017-08-10T06:15:26.279Z,15.8
2017-08-10T06:25:40.805Z,16.4
2017-08-10T06:35:55.344Z,16.4
2017-08-10T06:46:10.217Z,16.8
2017-08-10T06:56:25.256Z,16.8
2017-08-10T07:06:39.485Z,16.7
2017-08-10T07:16:54.084Z,16.6
2017-08-10T07:27:09.124Z,16.8
2017-08-10T07:37:23.646Z,16.8
2017-08-10T07:47:38.812Z,16.9
2017-08-10T07:57:52.969Z,16.9
2017-08-10T08:08:07.694Z,16.9
2017-08-10T08:18:22.764Z,17
2017-08-10T08:28:36.989Z,17.2
2017-08-10T08:38:51.585Z,17.6
2017-08-10T08:49:05.495Z,18
2017-08-10T08:59:19.417Z,18.1
2017-08-10T09:09:34.231Z,18.5
2017-08-10T09:19:48.186Z,19.1
2017-08-10T09:30:03.879Z,20.5
2017-08-10T09:40:19.176Z,21.1
2017-08-10T09:50:33.946Z,21.9
2017-08-10T10:00:49.103Z,24.6
2017-08-10T10:11:03.647Z,24.4
2017-08-10T10:21:19.469Z,22.9
2017-08-10T10:31:35.092Z,23.8
2017-08-10T10:41:49.485Z,23.5
2017-08-10T10:52:03.658Z,22.4
2017-08-10T11:02:17.751Z,22.3
2017-08-10T11:12:33.107Z,22.1
2017-08-10T11:22:47.365Z,22
2017-08-10T11:33:01.588Z,22.3
2017-08-10T11:43:17.302Z,22.8
2017-08-10T11:53:31.461Z,22.6
2017-08-10T12:03:47.240Z,22.5
2017-08-10T12:14:02.701Z,22.1
2017-08-10T12:24:17.258Z,22.3
2017-08-10T12:34:32.194Z,22.6
2017-08-10T12:44:47.163Z,22.9
2017-08-10T12:55:01.988Z,22.9
2017-08-10T13:05:17.827Z,22.3
2017-08-10T13:15:32.867Z,22.2
2017-08-10T13:25:48.623Z,21.9
2017-08-10T13:36:04.172Z,21.8
2017-08-10T13:46:19.233Z,21.7
2017-08-10T13:56:34.117Z,21.3
2017-08-10T14:06:48.126Z,21.6
2017-08-10T14:17:03.731Z,21.7
2017-08-10T14:27:19.243Z,21.7
2017-08-10T14:37:33.980Z,21.5
2017-08-10T14:47:48.608Z,21.9
2017-08-10T14:58:04.232Z,21.7
2017-08-10T15:08:19.017Z,21.3
2017-08-10T15:18:33.470Z,21
2017-08-10T15:28:48.567Z,20.5
2017-08-10T15:39:03.634Z,19.9
2017-08-10T15:49:18.030Z,19.2
2017-08-10T15:59:33.931Z,19.2
2017-08-10T16:09:47.550Z,19.2
2017-08-10T16:20:01.637Z,19.1
2017-08-10T16:30:15.660Z,19.1
2017-08-10T16:40:29.632Z,19
2017-08-10T16:50:44.734Z,18.9
2017-08-10T17:00:59.038Z,18.8
2017-08-10T17:11:13.594Z,18.7
2017-08-10T17:21:28.950Z,18.3
2017-08-10T17:31:44.732Z,18.1
2017-08-10T17:42:00.186Z,18
2017-08-10T17:52:15.240Z,17.7
2017-08-10T18:02:30.603Z,17.2
2017-08-10T18:12:44.685Z,16.8
2017-08-10T18:22:59.912Z,16.8
2017-08-10T18:33:13.967Z,16.8
2017-08-10T18:43:29.057Z,16.6
2017-08-10T18:53:44.495Z,16.6
2017-08-10T19:03:59.455Z,16.5
2017-08-10T19:14:14.114Z,16.6
2017-08-10T19:24:29.237Z,16.4
2017-08-10T19:34:44.652Z,16.5
2017-08-10T19:44:59.567Z,16.6
2017-08-10T19:55:15.241Z,16.4
2017-08-10T20:05:29.175Z,16.2
2017-08-10T20:15:44.752Z,16.2
2017-08-10T20:26:00.130Z,16.2
2017-08-10T20:36:15.163Z,16.1
2017-08-10T20:46:28.961Z,16
2017-08-10T20:56:43.464Z,15.8
2017-08-10T21:06:58.281Z,15.9
2017-08-10T21:17:13.421Z,15.8
2017-08-10T21:27:28.095Z,16
2017-08-10T21:37:42.018Z,15.9
2017-08-10T21:47:56.015Z,15.6
2017-08-10T21:58:10.324Z,15.5
2017-08-10T22:08:25.503Z,15.6
2017-08-10T22:18:39.891Z,15.7
2017-08-10T22:28:55.511Z,15.5
2017-08-10T22:39:10.548Z,15.6
2017-08-10T22:49:25.612Z,15.6
2017-08-10T22:59:41.069Z,15.5
2017-08-10T23:09:56.537Z,15.3
2017-08-10T23:20:11.641Z,15.2
2017-08-10T23:30:25.772Z,15
2017-08-10T23:40:40.289Z,14.9
2017-08-10T23:50:55.339Z,14.9
